sim
Sign-in with your pilot id or email,
or register
Callsign
Passwort

Schedule Details

Flight Number: RYR966 (2)
Departure: London Stansted Airport (EGSS) at 08:15
Arrival: Gothenburg Landvetter Airport (ESGG) at 10:05
Route: Ryanair Passenger Schedule. Enter filed route here before submitting Pirep.

Weather Information
Getting current METAR information for EGSS 251350Z AUTO 19012KT 9999 NCD 11/07 Q0996
Getting current METAR information for ESGG 251350Z 20013KT 9999 -RA SCT005 BKN008 11/10 Q0998

Schedule Frequency

Route Map